sensor_id;sensor_type;location;lat;lon;timestamp;pressure;altitude;pressure_sealevel;temperature;humidity
61119;BME280;51448;51.660;5.824;2023-12-14T00:01:19;100687.53;;;6.69;100.00
61119;BME280;51448;51.660;5.824;2023-12-14T00:03:47;100698.84;;;6.68;100.00
61119;BME280;51448;51.660;5.824;2023-12-14T00:06:14;100704.09;;;6.66;100.00
61119;BME280;51448;51.660;5.824;2023-12-14T00:08:42;100709.31;;;6.66;100.00
61119;BME280;51448;51.660;5.824;2023-12-14T00:11:11;100706.75;;;6.63;100.00
61119;BME280;51448;51.660;5.824;2023-12-14T00:13:39;100707.69;;;6.59;100.00
61119;BME280;51448;51.660;5.824;2023-12-14T00:16:08;100727.75;;;6.57;100.00
61119;BME280;51448;51.660;5.824;2023-12-14T00:18:36;100731.22;;;6.56;100.00
61119;BME280;51448;51.660;5.824;2023-12-14T00:21:05;100740.88;;;6.51;100.00
61119;BME280;51448;51.660;5.824;2023-12-14T00:23:36;100743.50;;;6.49;100.00
61119;BME280;51448;51.660;5.824;2023-12-14T00:26:03;100758.34;;;6.49;100.00
61119;BME280;51448;51.660;5.824;2023-12-14T00:28:31;100754.81;;;6.53;100.00
61119;BME280;51448;51.660;5.824;2023-12-14T00:31:00;100763.50;;;6.52;100.00
61119;BME280;51448;51.660;5.824;2023-12-14T00:33:28;100774.84;;;6.51;100.00
61119;BME280;51448;51.660;5.824;2023-12-14T00:35:56;100772.31;;;6.44;100.00
61119;BME280;51448;51.660;5.824;2023-12-14T00:38:23;100783.63;;;6.43;100.00
61119;BME280;51448;51.660;5.824;2023-12-14T00:40:51;100788.00;;;6.44;100.00
61119;BME280;51448;51.660;5.824;2023-12-14T00:43:18;100795.81;;;6.46;100.00
61119;BME280;51448;51.660;5.824;2023-12-14T00:45:46;100795.00;;;6.42;100.00
61119;BME280;51448;51.660;5.824;2023-12-14T00:48:13;100808.97;;;6.37;100.00
61119;BME280;51448;51.660;5.824;2023-12-14T00:50:41;100816.81;;;6.35;100.00
61119;BME280;51448;51.660;5.824;2023-12-14T00:53:09;100817.72;;;6.34;100.00
61119;BME280;51448;51.660;5.824;2023-12-14T00:55:36;100826.47;;;6.30;100.00
61119;BME280;51448;51.660;5.824;2023-12-14T00:58:04;100827.38;;;6.28;100.00
61119;BME280;51448;51.660;5.824;2023-12-14T01:00:31;100836.06;;;6.28;100.00
61119;BME280;51448;51.660;5.824;2023-12-14T01:02:59;100841.31;;;6.27;100.00
61119;BME280;51448;51.660;5.824;2023-12-14T01:05:26;100853.50;;;6.24;100.00
61119;BME280;51448;51.660;5.824;2023-12-14T01:07:54;100853.50;;;6.26;100.00
61119;BME280;51448;51.660;5.824;2023-12-14T01:10:22;100847.38;;;6.27;100.00
61119;BME280;51448;51.660;5.824;2023-12-14T01:12:49;100848.28;;;6.26;100.00
61119;BME280;51448;51.660;5.824;2023-12-14T01:15:17;100853.50;;;6.26;100.00
61119;BME280;51448;51.660;5.824;2023-12-14T01:17:45;100856.13;;;6.23;100.00
61119;BME280;51448;51.660;5.824;2023-12-14T01:20:12;100858.75;;;6.23;100.00
61119;BME280;51448;51.660;5.824;2023-12-14T01:22:40;100857.03;;;6.20;100.00
61119;BME280;51448;51.660;5.824;2023-12-14T01:25:08;100857.88;;;6.21;100.00
61119;BME280;51448;51.660;5.824;2023-12-14T01:27:35;100866.63;;;6.17;100.00
61119;BME280;51448;51.660;5.824;2023-12-14T01:30:03;100862.34;;;6.11;100.00
61119;BME280;51448;51.660;5.824;2023-12-14T01:32:31;100877.19;;;6.08;100.00
61119;BME280;51448;51.660;5.824;2023-12-14T01:34:59;100874.56;;;6.06;100.00
61119;BME280;51448;51.660;5.824;2023-12-14T01:37:26;100880.69;;;6.03;100.00
61119;BME280;51448;51.660;5.824;2023-12-14T01:39:54;100886.81;;;6.01;100.00
61119;BME280;51448;51.660;5.824;2023-12-14T01:42:21;100891.19;;;5.97;100.00
61119;BME280;51448;51.660;5.824;2023-12-14T01:44:49;100912.09;;;5.96;100.00
61119;BME280;51448;51.660;5.824;2023-12-14T01:47:16;100912.97;;;5.95;100.00
61119;BME280;51448;51.660;5.824;2023-12-14T01:49:44;100914.69;;;5.93;100.00
61119;BME280;51448;51.660;5.824;2023-12-14T01:52:12;100923.41;;;5.90;100.00
61119;BME280;51448;51.660;5.824;2023-12-14T01:54:39;100921.69;;;5.91;100.00
61119;BME280;51448;51.660;5.824;2023-12-14T01:57:07;100931.22;;;5.90;100.00
61119;BME280;51448;51.660;5.824;2023-12-14T01:59:34;100937.34;;;5.88;100.00
61119;BME280;51448;51.660;5.824;2023-12-14T02:02:02;100944.31;;;5.87;100.00
61119;BME280;51448;51.660;5.824;2023-12-14T02:04:32;100948.69;;;5.85;100.00
61119;BME280;51448;51.660;5.824;2023-12-14T02:07:00;100953.00;;;5.86;100.00
61119;BME280;51448;51.660;5.824;2023-12-14T02:09:27;100962.63;;;5.81;100.00
61119;BME280;51448;51.660;5.824;2023-12-14T02:11:55;100966.13;;;5.78;100.00
61119;BME280;51448;51.660;5.824;2023-12-14T02:14:23;100969.59;;;5.79;100.00
61119;BME280;51448;51.660;5.824;2023-12-14T02:16:50;100967.84;;;5.78;100.00
61119;BME280;51448;51.660;5.824;2023-12-14T02:19:18;100971.34;;;5.77;100.00
61119;BME280;51448;51.660;5.824;2023-12-14T02:21:46;100967.03;;;5.73;100.00
61119;BME280;51448;51.660;5.824;2023-12-14T02:24:13;100973.09;;;5.72;100.00
61119;BME280;51448;51.660;5.824;2023-12-14T02:26:41;100977.47;;;5.71;100.00
61119;BME280;51448;51.660;5.824;2023-12-14T02:29:08;100981.84;;;5.68;100.00
61119;BME280;51448;51.660;5.824;2023-12-14T02:31:36;100983.63;;;5.64;100.00
61119;BME280;51448;51.660;5.824;2023-12-14T02:34:03;100988.88;;;5.56;100.00
61119;BME280;51448;51.660;5.824;2023-12-14T02:36:31;100991.47;;;5.58;100.00
61119;BME280;51448;51.660;5.824;2023-12-14T02:38:58;101000.16;;;5.57;100.00
61119;BME280;51448;51.660;5.824;2023-12-14T02:41:26;101005.38;;;5.55;100.00
61119;BME280;51448;51.660;5.824;2023-12-14T02:43:53;101011.47;;;5.57;100.00
61119;BME280;51448;51.660;5.824;2023-12-14T02:46:21;101014.94;;;5.56;100.00
61119;BME280;51448;51.660;5.824;2023-12-14T02:48:49;101017.56;;;5.56;100.00
61119;BME280;51448;51.660;5.824;2023-12-14T02:51:16;101012.34;;;5.55;100.00
61119;BME280;51448;51.660;5.824;2023-12-14T02:53:44;101004.53;;;5.56;100.00
61119;BME280;51448;51.660;5.824;2023-12-14T02:56:11;101013.22;;;5.57;100.00
61119;BME280;51448;51.660;5.824;2023-12-14T02:58:40;101023.66;;;5.58;100.00
61119;BME280;51448;51.660;5.824;2023-12-14T03:01:07;101028.00;;;5.56;100.00
61119;BME280;51448;51.660;5.824;2023-12-14T03:03:38;101030.59;;;5.56;100.00
61119;BME280;51448;51.660;5.824;2023-12-14T03:06:07;101039.31;;;5.54;100.00
61119;BME280;51448;51.660;5.824;2023-12-14T03:08:34;101047.16;;;5.52;100.00
61119;BME280;51448;51.660;5.824;2023-12-14T03:11:02;101042.78;;;5.51;100.00
61119;BME280;51448;51.660;5.824;2023-12-14T03:13:30;101048.91;;;5.52;100.00
61119;BME280;51448;51.660;5.824;2023-12-14T03:15:57;101052.38;;;5.52;100.00
61119;BME280;51448;51.660;5.824;2023-12-14T03:18:25;101057.59;;;5.52;100.00
61119;BME280;51448;51.660;5.824;2023-12-14T03:20:52;101061.91;;;5.55;100.00
61119;BME280;51448;51.660;5.824;2023-12-14T03:23:20;101064.53;;;5.53;100.00
61119;BME280;51448;51.660;5.824;2023-12-14T03:25:47;101061.91;;;5.56;100.00
61119;BME280;51448;51.660;5.824;2023-12-14T03:28:15;101074.06;;;5.57;100.00
61119;BME280;51448;51.660;5.824;2023-12-14T03:30:43;101070.59;;;5.58;100.00
61119;BME280;51448;51.660;5.824;2023-12-14T03:33:10;101072.31;;;5.59;100.00
61119;BME280;51448;51.660;5.824;2023-12-14T03:35:38;101081.03;;;5.61;100.00
61119;BME280;51448;51.660;5.824;2023-12-14T03:38:05;101078.41;;;5.63;100.00
61119;BME280;51448;51.660;5.824;2023-12-14T03:40:33;101078.41;;;5.61;100.00
61119;BME280;51448;51.660;5.824;2023-12-14T03:43:01;101081.91;;;5.60;100.00
61119;BME280;51448;51.660;5.824;2023-12-14T03:45:30;101088.88;;;5.60;100.00
61119;BME280;51448;51.660;5.824;2023-12-14T03:47:58;101091.50;;;5.60;100.00
61119;BME280;51448;51.660;5.824;2023-12-14T03:50:26;101090.59;;;5.59;100.00
61119;BME280;51448;51.660;5.824;2023-12-14T03:52:53;101094.94;;;5.59;100.00
61119;BME280;51448;51.660;5.824;2023-12-14T03:55:21;101100.16;;;5.59;100.00
61119;BME280;51448;51.660;5.824;2023-12-14T03:57:48;101107.13;;;5.58;100.00
61119;BME280;51448;51.660;5.824;2023-12-14T04:00:16;101101.06;;;5.58;100.00
61119;BME280;51448;51.660;5.824;2023-12-14T04:02:44;101114.09;;;5.58;100.00
61119;BME280;51448;51.660;5.824;2023-12-14T04:05:11;101112.34;;;5.58;100.00
61119;BME280;51448;51.660;5.824;2023-12-14T04:07:39;101113.25;;;5.56;100.00
61119;BME280;51448;51.660;5.824;2023-12-14T04:10:09;101114.97;;;5.55;100.00
61119;BME280;51448;51.660;5.824;2023-12-14T04:12:38;101122.78;;;5.55;100.00
61119;BME280;51448;51.660;5.824;2023-12-14T04:15:08;101114.97;;;5.57;100.00
61119;BME280;51448;51.660;5.824;2023-12-14T04:17:37;101125.41;;;5.58;100.00
61119;BME280;51448;51.660;5.824;2023-12-14T04:20:05;101120.19;;;5.58;100.00
61119;BME280;51448;51.660;5.824;2023-12-14T04:22:34;101124.53;;;5.56;100.00
61119;BME280;51448;51.660;5.824;2023-12-14T04:25:01;101125.41;;;5.55;100.00
61119;BME280;51448;51.660;5.824;2023-12-14T04:27:29;101130.66;;;5.54;100.00
61119;BME280;51448;51.660;5.824;2023-12-14T04:29:57;101131.50;;;5.51;100.00
61119;BME280;51448;51.660;5.824;2023-12-14T04:32:25;101129.78;;;5.50;100.00
61119;BME280;51448;51.660;5.824;2023-12-14T04:34:52;101137.59;;;5.52;100.00
61119;BME280;51448;51.660;5.824;2023-12-14T04:37:20;101140.22;;;5.50;100.00
61119;BME280;51448;51.660;5.824;2023-12-14T04:39:48;101139.34;;;5.50;100.00
61119;BME280;51448;51.660;5.824;2023-12-14T04:42:15;101141.97;;;5.50;100.00
61119;BME280;51448;51.660;5.824;2023-12-14T04:44:43;101147.16;;;5.48;100.00
61119;BME280;51448;51.660;5.824;2023-12-14T04:47:10;101153.28;;;5.44;100.00
61119;BME280;51448;51.660;5.824;2023-12-14T04:49:38;101165.44;;;5.43;100.00
61119;BME280;51448;51.660;5.824;2023-12-14T04:52:06;101175.88;;;5.43;100.00
61119;BME280;51448;51.660;5.824;2023-12-14T04:54:33;101184.56;;;5.44;100.00
61119;BME280;51448;51.660;5.824;2023-12-14T04:57:04;101187.19;;;5.44;100.00
61119;BME280;51448;51.660;5.824;2023-12-14T04:59:32;101196.75;;;5.40;100.00
61119;BME280;51448;51.660;5.824;2023-12-14T05:02:00;101202.84;;;5.39;100.00
61119;BME280;51448;51.660;5.824;2023-12-14T05:04:27;101207.19;;;5.40;100.00
61119;BME280;51448;51.660;5.824;2023-12-14T05:06:55;101216.72;;;5.43;100.00
61119;BME280;51448;51.660;5.824;2023-12-14T05:09:22;101213.28;;;5.44;100.00
61119;BME280;51448;51.660;5.824;2023-12-14T05:11:50;101221.06;;;5.47;100.00
61119;BME280;51448;51.660;5.824;2023-12-14T05:14:17;101225.44;;;5.48;100.00
61119;BME280;51448;51.660;5.824;2023-12-14T05:16:45;101216.72;;;5.49;100.00
61119;BME280;51448;51.660;5.824;2023-12-14T05:19:12;101230.66;;;5.48;100.00
61119;BME280;51448;51.660;5.824;2023-12-14T05:21:40;101235.00;;;5.48;100.00
61119;BME280;51448;51.660;5.824;2023-12-14T05:24:07;101241.09;;;5.47;100.00
61119;BME280;51448;51.660;5.824;2023-12-14T05:26:35;101242.84;;;5.46;100.00
61119;BME280;51448;51.660;5.824;2023-12-14T05:29:03;101248.94;;;5.43;100.00
61119;BME280;51448;51.660;5.824;2023-12-14T05:31:30;101258.47;;;5.43;100.00
61119;BME280;51448;51.660;5.824;2023-12-14T05:33:58;101257.59;;;5.42;100.00
61119;BME280;51448;51.660;5.824;2023-12-14T05:36:26;101266.31;;;5.41;100.00
61119;BME280;51448;51.660;5.824;2023-12-14T05:38:53;101270.66;;;5.41;100.00
61119;BME280;51448;51.660;5.824;2023-12-14T05:41:21;101282.81;;;5.40;100.00
61119;BME280;51448;51.660;5.824;2023-12-14T05:43:48;101283.72;;;5.39;100.00
61119;BME280;51448;51.660;5.824;2023-12-14T05:46:21;101295.88;;;5.40;100.00
61119;BME280;51448;51.660;5.824;2023-12-14T05:48:49;101293.25;;;5.39;100.00
61119;BME280;51448;51.660;5.824;2023-12-14T05:51:30;101308.91;;;5.39;100.00
61119;BME280;51448;51.660;5.824;2023-12-14T05:53:58;101308.03;;;5.37;100.00
61119;BME280;51448;51.660;5.824;2023-12-14T05:56:26;101313.25;;;5.37;100.00
61119;BME280;51448;51.660;5.824;2023-12-14T05:58:54;101318.47;;;5.37;100.00
61119;BME280;51448;51.660;5.824;2023-12-14T06:01:23;101320.22;;;5.36;100.00
61119;BME280;51448;51.660;5.824;2023-12-14T06:03:52;101325.41;;;5.35;100.00
61119;BME280;51448;51.660;5.824;2023-12-14T06:06:19;101337.59;;;5.36;100.00
61119;BME280;51448;51.660;5.824;2023-12-14T06:08:47;101344.56;;;5.38;100.00
61119;BME280;51448;51.660;5.824;2023-12-14T06:11:15;101352.38;;;5.37;100.00
61119;BME280;51448;51.660;5.824;2023-12-14T06:13:43;101356.75;;;5.38;100.00
61119;BME280;51448;51.660;5.824;2023-12-14T06:16:11;101360.19;;;5.37;100.00
61119;BME280;51448;51.660;5.824;2023-12-14T06:18:40;101360.19;;;5.37;100.00
61119;BME280;51448;51.660;5.824;2023-12-14T06:21:11;101366.31;;;5.36;100.00
61119;BME280;51448;51.660;5.824;2023-12-14T06:23:39;101374.97;;;5.35;100.00
61119;BME280;51448;51.660;5.824;2023-12-14T06:26:06;101374.97;;;5.35;100.00
61119;BME280;51448;51.660;5.824;2023-12-14T06:28:34;101377.59;;;5.35;100.00
61119;BME280;51448;51.660;5.824;2023-12-14T06:31:02;101386.28;;;5.37;100.00
61119;BME280;51448;51.660;5.824;2023-12-14T06:33:31;101379.34;;;5.39;100.00
61119;BME280;51448;51.660;5.824;2023-12-14T06:36:03;101384.56;;;5.40;100.00
61119;BME280;51448;51.660;5.824;2023-12-14T06:38:32;101384.56;;;5.40;100.00
61119;BME280;51448;51.660;5.824;2023-12-14T06:41:00;101394.13;;;5.43;100.00
61119;BME280;51448;51.660;5.824;2023-12-14T06:43:29;101393.25;;;5.41;100.00
61119;BME280;51448;51.660;5.824;2023-12-14T06:45:57;101402.84;;;5.42;100.00
61119;BME280;51448;51.660;5.824;2023-12-14T06:48:25;101406.28;;;5.41;100.00
61119;BME280;51448;51.660;5.824;2023-12-14T06:50:52;101403.72;;;5.39;100.00
61119;BME280;51448;51.660;5.824;2023-12-14T06:53:22;101417.59;;;5.37;100.00
61119;BME280;51448;51.660;5.824;2023-12-14T06:55:49;101421.94;;;5.35;100.00
61119;BME280;51448;51.660;5.824;2023-12-14T06:58:17;101413.22;;;5.33;100.00
61119;BME280;51448;51.660;5.824;2023-12-14T07:00:45;101428.03;;;5.32;100.00
61119;BME280;51448;51.660;5.824;2023-12-14T07:03:13;101425.41;;;5.31;100.00
61119;BME280;51448;51.660;5.824;2023-12-14T07:05:42;101420.19;;;5.31;100.00
61119;BME280;51448;51.660;5.824;2023-12-14T07:08:10;101411.50;;;5.32;100.00
61119;BME280;51448;51.660;5.824;2023-12-14T07:10:37;101428.03;;;5.32;100.00
61119;BME280;51448;51.660;5.824;2023-12-14T07:13:05;101424.53;;;5.32;100.00
61119;BME280;51448;51.660;5.824;2023-12-14T07:15:32;101436.72;;;5.33;100.00
61119;BME280;51448;51.660;5.824;2023-12-14T07:18:00;101448.91;;;5.34;100.00
61119;BME280;51448;51.660;5.824;2023-12-14T07:20:28;101459.34;;;5.34;100.00
61119;BME280;51448;51.660;5.824;2023-12-14T07:22:55;101456.72;;;5.34;100.00
61119;BME280;51448;51.660;5.824;2023-12-14T07:25:23;101467.16;;;5.34;100.00
61119;BME280;51448;51.660;5.824;2023-12-14T07:27:50;101467.16;;;5.34;100.00
61119;BME280;51448;51.660;5.824;2023-12-14T07:30:18;101468.00;;;5.33;100.00
61119;BME280;51448;51.660;5.824;2023-12-14T07:32:45;101472.38;;;5.32;100.00
61119;BME280;51448;51.660;5.824;2023-12-14T07:35:13;101479.31;;;5.30;100.00
61119;BME280;51448;51.660;5.824;2023-12-14T07:37:41;101484.53;;;5.30;100.00
61119;BME280;51448;51.660;5.824;2023-12-14T07:40:08;101486.25;;;5.28;100.00
61119;BME280;51448;51.660;5.824;2023-12-14T07:42:36;101493.22;;;5.28;100.00
61119;BME280;51448;51.660;5.824;2023-12-14T07:45:05;101499.28;;;5.27;100.00
61119;BME280;51448;51.660;5.824;2023-12-14T07:47:33;101513.22;;;5.26;100.00
61119;BME280;51448;51.660;5.824;2023-12-14T07:50:01;101513.22;;;5.27;100.00
61119;BME280;51448;51.660;5.824;2023-12-14T07:52:28;101519.28;;;5.24;100.00
61119;BME280;51448;51.660;5.824;2023-12-14T07:54:56;101518.41;;;5.24;100.00
61119;BME280;51448;51.660;5.824;2023-12-14T07:57:23;101518.38;;;5.22;100.00
61119;BME280;51448;51.660;5.824;2023-12-14T07:59:51;101530.56;;;5.22;100.00
61119;BME280;51448;51.660;5.824;2023-12-14T08:02:18;101527.09;;;5.21;100.00
61119;BME280;51448;51.660;5.824;2023-12-14T08:04:46;101541.88;;;5.21;100.00
61119;BME280;51448;51.660;5.824;2023-12-14T08:07:13;101549.72;;;5.21;100.00
61119;BME280;51448;51.660;5.824;2023-12-14T08:09:41;101545.31;;;5.18;100.00
61119;BME280;51448;51.660;5.824;2023-12-14T08:12:08;101558.38;;;5.20;100.00
61119;BME280;51448;51.660;5.824;2023-12-14T08:14:36;101560.97;;;5.20;100.00
61119;BME280;51448;51.660;5.824;2023-12-14T08:17:05;101562.75;;;5.21;100.00
61119;BME280;51448;51.660;5.824;2023-12-14T08:19:33;101573.16;;;5.19;100.00
61119;BME280;51448;51.660;5.824;2023-12-14T08:22:00;101575.75;;;5.18;100.00
61119;BME280;51448;51.660;5.824;2023-12-14T08:24:28;101581.81;;;5.18;100.00
61119;BME280;51448;51.660;5.824;2023-12-14T08:26:55;101582.72;;;5.19;100.00
61119;BME280;51448;51.660;5.824;2023-12-14T08:29:23;101587.06;;;5.20;100.00
61119;BME280;51448;51.660;5.824;2023-12-14T08:31:50;101589.66;;;5.20;100.00
61119;BME280;51448;51.660;5.824;2023-12-14T08:34:18;101590.56;;;5.19;100.00
61119;BME280;51448;51.660;5.824;2023-12-14T08:36:46;101589.66;;;5.18;100.00
61119;BME280;51448;51.660;5.824;2023-12-14T08:39:13;101602.72;;;5.20;100.00
61119;BME280;51448;51.660;5.824;2023-12-14T08:41:41;101600.97;;;5.17;100.00
61119;BME280;51448;51.660;5.824;2023-12-14T08:44:08;101595.72;;;5.16;100.00
61119;BME280;51448;51.660;5.824;2023-12-14T08:46:43;101607.03;;;5.15;100.00
61119;BME280;51448;51.660;5.824;2023-12-14T08:49:13;101614.00;;;5.17;100.00
61119;BME280;51448;51.660;5.824;2023-12-14T08:51:41;101615.72;;;5.15;100.00
61119;BME280;51448;51.660;5.824;2023-12-14T08:54:09;101621.78;;;5.14;100.00
61119;BME280;51448;51.660;5.824;2023-12-14T08:56:36;101621.78;;;5.14;100.00
61119;BME280;51448;51.660;5.824;2023-12-14T08:59:04;101628.72;;;5.12;100.00
61119;BME280;51448;51.660;5.824;2023-12-14T09:01:32;101639.13;;;5.08;100.00
61119;BME280;51448;51.660;5.824;2023-12-14T09:03:59;101632.16;;;5.05;100.00
61119;BME280;51448;51.660;5.824;2023-12-14T09:06:27;101646.94;;;5.04;100.00
61119;BME280;51448;51.660;5.824;2023-12-14T09:08:55;101646.94;;;5.04;100.00
61119;BME280;51448;51.660;5.824;2023-12-14T09:11:22;101654.75;;;5.06;100.00
61119;BME280;51448;51.660;5.824;2023-12-14T09:13:50;101657.34;;;5.03;100.00
61119;BME280;51448;51.660;5.824;2023-12-14T09:16:18;101663.41;;;5.02;100.00
61119;BME280;51448;51.660;5.824;2023-12-14T09:18:46;101666.91;;;5.01;100.00
61119;BME280;51448;51.660;5.824;2023-12-14T09:21:14;101670.34;;;5.00;100.00
61119;BME280;51448;51.660;5.824;2023-12-14T09:23:42;101671.19;;;4.96;100.00
61119;BME280;51448;51.660;5.824;2023-12-14T09:26:10;101675.56;;;4.97;100.00
61119;BME280;51448;51.660;5.824;2023-12-14T09:28:38;101677.28;;;4.98;100.00
61119;BME280;51448;51.660;5.824;2023-12-14T09:31:06;101682.50;;;4.98;100.00
61119;BME280;51448;51.660;5.824;2023-12-14T09:33:35;101694.69;;;4.97;100.00
61119;BME280;51448;51.660;5.824;2023-12-14T09:36:03;101692.91;;;4.95;100.00
61119;BME280;51448;51.660;5.824;2023-12-14T09:38:31;101699.88;;;4.96;100.00
61119;BME280;51448;51.660;5.824;2023-12-14T09:40:59;101709.41;;;4.94;100.00
61119;BME280;51448;51.660;5.824;2023-12-14T09:43:26;101712.91;;;4.94;100.00
61119;BME280;51448;51.660;5.824;2023-12-14T09:45:55;101719.00;;;4.95;100.00
61119;BME280;51448;51.660;5.824;2023-12-14T09:48:23;101714.66;;;4.97;100.00
61119;BME280;51448;51.660;5.824;2023-12-14T09:50:51;101724.22;;;4.98;100.00
61119;BME280;51448;51.660;5.824;2023-12-14T09:53:19;101718.13;;;4.97;100.00
61119;BME280;51448;51.660;5.824;2023-12-14T09:55:46;101725.97;;;4.99;100.00
61119;BME280;51448;51.660;5.824;2023-12-14T09:58:14;101727.72;;;4.98;100.00
61119;BME280;51448;51.660;5.824;2023-12-14T10:00:42;101735.53;;;4.98;100.00
61119;BME280;51448;51.660;5.824;2023-12-14T10:03:26;101731.19;;;4.97;100.00
61119;BME280;51448;51.660;5.824;2023-12-14T10:05:56;101742.47;;;4.96;100.00
61119;BME280;51448;51.660;5.824;2023-12-14T10:08:25;101751.16;;;4.95;100.00
61119;BME280;51448;51.660;5.824;2023-12-14T10:10:54;101754.63;;;4.96;100.00
61119;BME280;51448;51.660;5.824;2023-12-14T10:13:38;101758.94;;;4.94;100.00
61119;BME280;51448;51.660;5.824;2023-12-14T10:16:06;101767.63;;;4.91;100.00
61119;BME280;51448;51.660;5.824;2023-12-14T10:18:34;101776.31;;;4.92;100.00
61119;BME280;51448;51.660;5.824;2023-12-14T10:21:03;101778.09;;;4.94;100.00
61119;BME280;51448;51.660;5.824;2023-12-14T10:23:33;101772.03;;;4.97;100.00
61119;BME280;51448;51.660;5.824;2023-12-14T10:26:04;101772.94;;;5.00;100.00
61119;BME280;51448;51.660;5.824;2023-12-14T10:28:32;101771.19;;;5.01;100.00
61119;BME280;51448;51.660;5.824;2023-12-14T10:30:59;101777.28;;;5.01;100.00
61119;BME280;51448;51.660;5.824;2023-12-14T10:33:27;101774.66;;;5.00;100.00
61119;BME280;51448;51.660;5.824;2023-12-14T10:35:56;101793.78;;;5.02;100.00
61119;BME280;51448;51.660;5.824;2023-12-14T10:38:25;101799.91;;;5.06;100.00
61119;BME280;51448;51.660;5.824;2023-12-14T10:40:57;101795.59;;;5.08;100.00
61119;BME280;51448;51.660;5.824;2023-12-14T10:43:26;101805.19;;;5.09;100.00
61119;BME280;51448;51.660;5.824;2023-12-14T10:45:57;101803.41;;;5.08;100.00
61119;BME280;51448;51.660;5.824;2023-12-14T10:48:26;101798.19;;;5.08;100.00
61119;BME280;51448;51.660;5.824;2023-12-14T10:50:59;101807.75;;;5.07;100.00
61119;BME280;51448;51.660;5.824;2023-12-14T10:53:29;101811.22;;;5.08;100.00
61119;BME280;51448;51.660;5.824;2023-12-14T10:55:59;101821.63;;;5.06;100.00
61119;BME280;51448;51.660;5.824;2023-12-14T10:58:45;101807.72;;;5.04;100.00
61119;BME280;51448;51.660;5.824;2023-12-14T11:01:15;101809.44;;;5.02;100.00
61119;BME280;51448;51.660;5.824;2023-12-14T11:03:44;101806.81;;;5.02;100.00
61119;BME280;51448;51.660;5.824;2023-12-14T11:08:52;101799.84;;;4.99;100.00
61119;BME280;51448;51.660;5.824;2023-12-14T11:11:22;101805.94;;;5.00;100.00
61119;BME280;51448;51.660;5.824;2023-12-14T11:13:52;101813.81;;;5.03;100.00
61119;BME280;51448;51.660;5.824;2023-12-14T11:16:21;101815.56;;;5.06;100.00
61119;BME280;51448;51.660;5.824;2023-12-14T11:22:09;101826.91;;;5.12;100.00
61119;BME280;51448;51.660;5.824;2023-12-14T11:24:45;101833.03;;;5.14;100.00
61119;BME280;51448;51.660;5.824;2023-12-14T11:27:25;101833.91;;;5.13;100.00
61119;BME280;51448;51.660;5.824;2023-12-14T11:29:54;101835.63;;;5.14;100.00
61119;BME280;51448;51.660;5.824;2023-12-14T11:32:24;101841.75;;;5.16;100.00
61119;BME280;51448;51.660;5.824;2023-12-14T11:34:52;101839.13;;;5.16;100.00
61119;BME280;51448;51.660;5.824;2023-12-14T11:37:20;101849.63;;;5.19;100.00
61119;BME280;51448;51.660;5.824;2023-12-14T11:39:49;101849.63;;;5.19;100.00
61119;BME280;51448;51.660;5.824;2023-12-14T11:42:18;101849.63;;;5.19;100.00
61119;BME280;51448;51.660;5.824;2023-12-14T11:44:45;101856.56;;;5.20;100.00
61119;BME280;51448;51.660;5.824;2023-12-14T11:47:13;101854.84;;;5.19;100.00
61119;BME280;51448;51.660;5.824;2023-12-14T11:49:41;101857.44;;;5.19;100.00
61119;BME280;51448;51.660;5.824;2023-12-14T11:52:09;101852.22;;;5.19;100.00
61119;BME280;51448;51.660;5.824;2023-12-14T11:54:37;101853.97;;;5.19;100.00
61119;BME280;51448;51.660;5.824;2023-12-14T11:57:05;101858.28;;;5.18;100.00
61119;BME280;51448;51.660;5.824;2023-12-14T11:59:36;101857.41;;;5.18;100.00
61119;BME280;51448;51.660;5.824;2023-12-14T12:02:04;101865.25;;;5.19;100.00
61119;BME280;51448;51.660;5.824;2023-12-14T12:04:32;101861.78;;;5.20;100.00
61119;BME280;51448;51.660;5.824;2023-12-14T12:07:04;101854.84;;;5.21;100.00
61119;BME280;51448;51.660;5.824;2023-12-14T12:09:43;101861.78;;;5.20;100.00
61119;BME280;51448;51.660;5.824;2023-12-14T12:12:12;101861.81;;;5.22;100.00
61119;BME280;51448;51.660;5.824;2023-12-14T12:14:40;101867.06;;;5.25;100.00
61119;BME280;51448;51.660;5.824;2023-12-14T12:17:09;101861.84;;;5.25;100.00
61119;BME280;51448;51.660;5.824;2023-12-14T12:19:37;101856.63;;;5.27;100.00
61119;BME280;51448;51.660;5.824;2023-12-14T12:22:05;101864.47;;;5.28;100.00
61119;BME280;51448;51.660;5.824;2023-12-14T12:24:33;101867.13;;;5.31;100.00
61119;BME280;51448;51.660;5.824;2023-12-14T12:27:01;101868.03;;;5.33;100.00
61119;BME280;51448;51.660;5.824;2023-12-14T12:29:29;101866.28;;;5.37;100.00
61119;BME280;51448;51.660;5.824;2023-12-14T12:31:58;101866.38;;;5.41;100.00
61119;BME280;51448;51.660;5.824;2023-12-14T12:34:25;101862.91;;;5.44;100.00
61119;BME280;51448;51.660;5.824;2023-12-14T12:36:54;101869.84;;;5.45;100.00
61119;BME280;51448;51.660;5.824;2023-12-14T12:39:22;101875.06;;;5.45;100.00
61119;BME280;51448;51.660;5.824;2023-12-14T12:41:49;101868.16;;;5.46;100.00
61119;BME280;51448;51.660;5.824;2023-12-14T12:44:17;101869.03;;;5.51;100.00
61119;BME280;51448;51.660;5.824;2023-12-14T12:46:45;101861.25;;;5.54;100.00
61119;BME280;51448;51.660;5.824;2023-12-14T12:49:27;101868.22;;;5.55;100.00
61119;BME280;51448;51.660;5.824;2023-12-14T12:51:55;101865.63;;;5.56;100.00
61119;BME280;51448;51.660;5.824;2023-12-14T12:54:23;101881.31;;;5.58;100.00
61119;BME280;51448;51.660;5.824;2023-12-14T12:56:50;101882.16;;;5.58;100.00
61119;BME280;51448;51.660;5.824;2023-12-14T12:59:18;101893.50;;;5.60;100.00
61119;BME280;51448;51.660;5.824;2023-12-14T13:01:45;101896.09;;;5.60;100.00